createdAt,value
2019-05-28T00:01:32.649Z,99.90
2019-05-28T00:04:03.341Z,99.90
2019-05-28T00:06:33.722Z,99.90
2019-05-28T00:09:04.455Z,99.90
2019-05-28T00:11:34.789Z,99.90
2019-05-28T00:14:05.468Z,99.90
2019-05-28T00:16:35.818Z,99.90
2019-05-28T00:19:06.173Z,99.90
2019-05-28T00:21:36.519Z,99.90
2019-05-28T00:24:06.844Z,99.90
2019-05-28T00:26:37.289Z,99.90
2019-05-28T00:29:07.682Z,99.90
2019-05-28T00:31:38.140Z,99.90
2019-05-28T00:34:09.715Z,99.90
2019-05-28T00:36:40.077Z,99.90
2019-05-28T00:39:10.502Z,99.90
2019-05-28T00:41:40.925Z,99.90
2019-05-28T00:44:11.262Z,99.90
2019-05-28T00:46:41.554Z,99.90
2019-05-28T00:49:12.308Z,99.90
2019-05-28T00:51:43.556Z,99.90
2019-05-28T00:54:14.030Z,99.90
2019-05-28T00:56:44.660Z,99.90
2019-05-28T00:59:15.278Z,99.90
2019-05-28T01:01:45.572Z,99.90
2019-05-28T01:04:17.137Z,99.90
2019-05-28T01:06:53.137Z,99.90
2019-05-28T01:09:23.481Z,99.90
2019-05-28T01:11:53.776Z,99.90
2019-05-28T01:14:24.066Z,99.90
2019-05-28T01:16:54.404Z,99.90
2019-05-28T01:19:24.699Z,99.90
2019-05-28T01:21:55.073Z,99.90
2019-05-28T01:24:25.378Z,99.90
2019-05-28T01:26:55.721Z,99.90
2019-05-28T01:29:26.031Z,99.90
2019-05-28T01:31:56.389Z,99.90
2019-05-28T01:34:28.978Z,99.90
2019-05-28T01:37:00.374Z,99.90
2019-05-28T01:39:30.740Z,99.90
2019-05-28T01:42:01.022Z,99.90
2019-05-28T01:44:31.349Z,99.90
2019-05-28T01:47:01.677Z,99.90
2019-05-28T01:49:32.020Z,99.90
2019-05-28T01:52:02.353Z,99.90
2019-05-28T01:54:32.703Z,99.90
2019-05-28T01:57:03.065Z,99.90
2019-05-28T01:59:33.448Z,99.90
2019-05-28T02:02:03.802Z,99.90
2019-05-28T02:04:34.101Z,99.90
2019-05-28T02:07:04.549Z,99.90
2019-05-28T02:09:34.885Z,99.90
2019-05-28T02:12:05.295Z,99.90
2019-05-28T02:14:35.661Z,99.90
2019-05-28T02:17:05.967Z,99.90
2019-05-28T02:19:37.409Z,99.90
2019-05-28T02:22:07.731Z,99.90
2019-05-28T02:24:38.119Z,99.90
2019-05-28T02:27:08.401Z,99.90
2019-05-28T02:29:38.849Z,99.90
2019-05-28T02:32:09.227Z,99.90
2019-05-28T02:34:41.155Z,99.90
2019-05-28T02:37:12.607Z,99.90
2019-05-28T02:39:42.934Z,99.90
2019-05-28T02:42:13.225Z,99.90
2019-05-28T02:44:43.579Z,99.90
2019-05-28T02:47:13.870Z,99.90
2019-05-28T02:49:44.209Z,99.90
2019-05-28T02:52:14.881Z,99.90
2019-05-28T02:54:45.349Z,99.90
2019-05-28T02:57:16.705Z,99.90
2019-05-28T02:59:50.909Z,99.90
2019-05-28T03:02:24.185Z,99.90
2019-05-28T03:04:56.360Z,99.90
2019-05-28T03:07:29.535Z,99.90
2019-05-28T03:10:02.610Z,99.90
2019-05-28T03:12:34.397Z,99.90
2019-05-28T03:15:16.789Z,99.90
2019-05-28T03:17:49.137Z,99.90
2019-05-28T03:20:24.734Z,99.90
2019-05-28T03:22:55.580Z,99.90
2019-05-28T03:25:33.244Z,99.90
2019-05-28T03:28:03.657Z,99.90
2019-05-28T03:30:33.990Z,99.90
2019-05-28T03:33:04.623Z,99.90
2019-05-28T03:35:35.489Z,99.90
2019-05-28T03:38:06.854Z,99.90
2019-05-28T03:40:47.569Z,99.90
2019-05-28T03:43:17.947Z,99.90
2019-05-28T03:45:49.765Z,99.90
2019-05-28T03:48:20.081Z,99.90
2019-05-28T03:50:50.453Z,99.90
2019-05-28T03:53:21.072Z,99.90
2019-05-28T03:55:51.427Z,99.90
2019-05-28T03:58:21.721Z,99.90
2019-05-28T04:00:52.090Z,99.90
2019-05-28T04:03:22.535Z,99.90
2019-05-28T04:05:52.883Z,99.90
2019-05-28T04:08:23.422Z,99.90
2019-05-28T04:10:53.745Z,99.90
2019-05-28T04:13:24.155Z,99.90
2019-05-28T04:15:54.474Z,99.90
2019-05-28T04:18:24.817Z,99.90
2019-05-28T04:20:55.153Z,99.90
2019-05-28T04:23:25.497Z,99.90
2019-05-28T04:25:55.811Z,99.90
2019-05-28T04:28:26.220Z,99.90
2019-05-28T04:30:56.545Z,99.90
2019-05-28T04:33:26.904Z,99.90
2019-05-28T04:35:57.201Z,99.90
2019-05-28T04:38:28.136Z,99.90
2019-05-28T04:40:58.501Z,99.90
2019-05-28T04:43:28.865Z,99.90
2019-05-28T04:45:59.161Z,99.90
2019-05-28T04:48:29.498Z,99.90
2019-05-28T04:50:59.809Z,99.90
2019-05-28T04:53:30.189Z,99.90
2019-05-28T04:56:00.490Z,99.90
2019-05-28T04:58:31.906Z,99.90
2019-05-28T05:01:03.340Z,99.90
2019-05-28T05:03:33.674Z,99.90
2019-05-28T05:06:03.999Z,99.90
2019-05-28T05:08:34.926Z,99.90
2019-05-28T05:11:05.676Z,99.90
2019-05-28T05:13:36.961Z,99.90
2019-05-28T05:16:07.319Z,99.90
2019-05-28T05:18:37.619Z,99.90
2019-05-28T05:21:07.973Z,99.90
2019-05-28T05:23:38.263Z,99.90
2019-05-28T05:26:08.599Z,99.90
2019-05-28T05:28:38.929Z,99.90
2019-05-28T05:31:09.311Z,99.90
2019-05-28T05:33:39.619Z,99.90
2019-05-28T05:36:10.001Z,99.90
2019-05-28T05:38:40.343Z,99.90
2019-05-28T05:41:10.714Z,99.90
2019-05-28T05:43:41.052Z,99.90
2019-05-28T05:46:11.440Z,99.90
2019-05-28T05:48:41.725Z,99.90
2019-05-28T05:51:12.049Z,99.90
2019-05-28T05:53:42.373Z,99.90
2019-05-28T05:56:13.430Z,99.90
2019-05-28T05:58:43.799Z,99.90
2019-05-28T06:01:14.115Z,99.90
2019-05-28T06:03:44.778Z,99.90
2019-05-28T06:06:15.325Z,99.90
2019-05-28T06:08:46.167Z,99.90
2019-05-28T06:11:17.091Z,99.90
2019-05-28T06:13:47.423Z,99.90
2019-05-28T06:16:17.757Z,99.90
2019-05-28T06:18:48.089Z,99.90
2019-05-28T06:21:20.563Z,99.90
2019-05-28T06:23:50.929Z,99.90
2019-05-28T06:26:21.247Z,99.90
2019-05-28T06:28:51.624Z,99.90
2019-05-28T06:31:22.113Z,99.90
2019-05-28T06:33:56.820Z,99.90
2019-05-28T06:36:24.506Z,99.90
2019-05-28T06:38:55.031Z,99.90
2019-05-28T06:41:25.417Z,99.90
2019-05-28T06:43:56.126Z,99.90
2019-05-28T06:46:26.496Z,99.90
2019-05-28T06:48:56.811Z,99.90
2019-05-28T06:51:27.170Z,99.90
2019-05-28T06:53:57.482Z,99.90
2019-05-28T06:56:27.809Z,99.90
2019-05-28T06:58:58.177Z,99.90
2019-05-28T07:01:28.839Z,99.90
2019-05-28T07:04:13.494Z,99.90
2019-05-28T07:06:32.297Z,99.90
2019-05-28T07:09:05.029Z,99.90
2019-05-28T07:11:35.333Z,99.90
2019-05-28T07:14:05.796Z,99.90
2019-05-28T07:16:52.037Z,99.90
2019-05-28T07:19:23.560Z,99.90
2019-05-28T07:21:41.207Z,99.90
2019-05-28T07:24:11.565Z,99.90
2019-05-28T07:26:41.878Z,99.90
2019-05-28T07:29:12.191Z,99.90
2019-05-28T07:31:42.686Z,99.90
2019-05-28T07:34:29.267Z,99.90
2019-05-28T07:37:02.543Z,99.90
2019-05-28T07:39:33.493Z,97.30
2019-05-28T07:42:03.815Z,94.30
2019-05-28T07:44:34.181Z,82.50
2019-05-28T07:47:04.498Z,72.50
2019-05-28T07:58:37.475Z,59.60
2019-05-28T08:01:07.806Z,58.20
2019-05-28T08:03:38.332Z,60.00
2019-05-28T08:06:08.685Z,60.50
2019-05-28T08:08:39.031Z,59.20
2019-05-28T08:11:09.422Z,57.90
2019-05-28T08:13:41.539Z,58.30
2019-05-28T08:16:18.527Z,59.90
2019-05-28T08:18:45.413Z,61.20
2019-05-28T08:21:16.807Z,60.80
2019-05-28T08:23:47.150Z,58.90
2019-05-28T08:26:17.478Z,61.00
2019-05-28T08:28:47.913Z,62.70
2019-05-28T08:31:21.092Z,63.60
2019-05-28T08:33:51.340Z,62.60
2019-05-28T08:36:21.659Z,61.40
2019-05-28T08:38:52.069Z,59.70
2019-05-28T08:41:22.390Z,58.60
2019-05-28T08:43:52.751Z,56.60
2019-05-28T08:46:23.058Z,57.50
2019-05-28T08:48:53.414Z,55.00
2019-05-28T08:51:23.750Z,54.80
2019-05-28T08:56:56.806Z,53.10
2019-05-28T08:59:27.124Z,53.60
2019-05-28T09:01:57.515Z,52.00
2019-05-28T09:04:27.878Z,50.20
2019-05-28T09:06:58.250Z,50.00
2019-05-28T09:09:28.629Z,48.70
2019-05-28T09:11:58.997Z,49.80
2019-05-28T09:14:53.848Z,48.00
2019-05-28T09:17:01.340Z,47.60
2019-05-28T09:19:31.723Z,45.40
2019-05-28T09:22:02.085Z,45.00
2019-05-28T09:27:44.786Z,45.70
2019-05-28T09:30:19.615Z,45.80
2019-05-28T09:45:36.697Z,49.80
2019-05-28T09:48:07.073Z,52.10
2019-05-28T09:50:37.385Z,54.60
2019-05-28T09:56:18.227Z,54.80
2019-05-28T09:58:48.590Z,54.30
2019-05-28T10:01:19.091Z,53.30
2019-05-28T10:03:49.447Z,53.20
2019-05-28T10:06:19.764Z,53.00
2019-05-28T10:08:50.161Z,51.50
2019-05-28T10:11:20.527Z,51.40
2019-05-28T10:13:51.184Z,52.00
2019-05-28T10:19:10.099Z,53.60
2019-05-28T10:21:40.498Z,53.80
2019-05-28T10:24:10.804Z,53.20
2019-05-28T10:26:41.223Z,53.00
2019-05-28T10:29:11.509Z,52.80
2019-05-28T10:31:41.881Z,54.10
2019-05-28T10:34:12.169Z,53.80
2019-05-28T10:36:42.543Z,52.50
2019-05-28T10:39:12.874Z,52.30
2019-05-28T10:41:43.282Z,51.30
2019-05-28T10:44:13.603Z,49.80
2019-05-28T10:46:44.037Z,50.10
2019-05-28T10:49:14.432Z,50.10
2019-05-28T10:51:44.793Z,51.00
2019-05-28T10:54:15.069Z,50.20
2019-05-28T10:56:48.062Z,50.50
2019-05-28T10:59:18.435Z,51.50
2019-05-28T11:01:48.762Z,50.50
2019-05-28T11:04:19.177Z,50.40
2019-05-28T11:06:52.184Z,49.70
2019-05-28T11:09:21.525Z,50.50
2019-05-28T11:11:51.876Z,50.70
2019-05-28T11:14:22.204Z,50.50
2019-05-28T11:16:52.802Z,49.80
2019-05-28T11:19:23.133Z,50.30
2019-05-28T11:21:53.512Z,50.70
2019-05-28T11:24:23.825Z,52.30
2019-05-28T11:26:54.176Z,53.70
2019-05-28T11:29:24.498Z,55.10
2019-05-28T11:31:54.856Z,55.70
2019-05-28T11:37:38.977Z,56.80
2019-05-28T11:40:09.402Z,58.00
2019-05-28T11:42:39.782Z,59.10
2019-05-28T11:45:11.703Z,60.20
2019-05-28T11:47:54.552Z,61.30
2019-05-28T11:50:25.064Z,62.80
2019-05-28T11:52:55.433Z,69.30
2019-05-28T11:55:25.930Z,74.80
2019-05-28T11:57:56.297Z,87.30
2019-05-28T12:00:27.237Z,99.90
2019-05-28T12:02:57.706Z,99.90
2019-05-28T12:05:28.854Z,99.90
2019-05-28T12:07:59.265Z,99.90
2019-05-28T12:10:30.098Z,99.90
2019-05-28T12:13:00.450Z,99.90
2019-05-28T12:15:30.826Z,99.90
2019-05-28T12:18:01.146Z,99.90
2019-05-28T12:20:32.519Z,99.90
2019-05-28T12:23:11.104Z,99.90
2019-05-28T12:25:34.796Z,99.90
2019-05-28T12:28:05.249Z,99.90
2019-05-28T12:30:35.603Z,99.90
2019-05-28T12:33:05.941Z,99.90
2019-05-28T12:35:36.244Z,99.90
2019-05-28T12:38:06.614Z,99.90
2019-05-28T12:40:46.982Z,99.90
2019-05-28T12:43:08.959Z,99.90
2019-05-28T12:45:39.259Z,99.90
2019-05-28T12:48:13.031Z,99.90
2019-05-28T12:50:54.484Z,99.90
2019-05-28T12:53:24.870Z,99.90
2019-05-28T12:55:55.197Z,99.90
2019-05-28T12:58:40.943Z,99.90
2019-05-28T13:00:57.568Z,99.90
2019-05-28T13:03:27.931Z,99.90
2019-05-28T13:05:58.509Z,99.90
2019-05-28T13:08:28.939Z,99.90
2019-05-28T13:10:59.313Z,99.90
2019-05-28T13:13:29.650Z,99.90
2019-05-28T13:15:59.968Z,99.90
2019-05-28T13:18:30.305Z,99.90
2019-05-28T13:21:00.608Z,99.90
2019-05-28T13:23:50.007Z,99.90
2019-05-28T13:26:20.354Z,99.90
2019-05-28T13:28:50.661Z,99.90
2019-05-28T13:31:21.004Z,99.90
2019-05-28T13:33:51.330Z,99.90
2019-05-28T13:36:22.597Z,99.90
2019-05-28T13:39:08.372Z,99.90
2019-05-28T13:41:38.717Z,99.90
2019-05-28T13:44:09.006Z,99.90
2019-05-28T13:46:39.367Z,99.90
2019-05-28T13:49:11.173Z,99.90
2019-05-28T13:51:41.563Z,99.90
2019-05-28T13:54:11.864Z,99.90
2019-05-28T13:56:42.277Z,99.90
2019-05-28T13:59:12.637Z,99.90
2019-05-28T14:01:43.004Z,99.90
2019-05-28T14:04:13.263Z,99.90
2019-05-28T14:06:44.725Z,99.90
2019-05-28T14:09:15.361Z,99.90
2019-05-28T14:11:45.671Z,99.90
2019-05-28T14:14:28.710Z,99.90
2019-05-28T14:16:59.287Z,99.90
2019-05-28T14:19:29.646Z,99.90
2019-05-28T14:22:04.327Z,99.90
2019-05-28T14:24:33.145Z,99.90
2019-05-28T14:27:03.437Z,99.90
2019-05-28T14:29:34.293Z,99.90
2019-05-28T14:32:04.618Z,99.90
2019-05-28T14:34:34.965Z,99.90
2019-05-28T14:37:05.288Z,99.90
2019-05-28T14:39:41.077Z,99.90
2019-05-28T14:42:07.585Z,99.90
2019-05-28T14:44:37.895Z,99.90
2019-05-28T14:47:08.227Z,99.90
2019-05-28T14:49:38.551Z,99.90
2019-05-28T14:52:08.886Z,99.90
2019-05-28T14:54:39.226Z,99.90
2019-05-28T14:57:09.546Z,99.90
2019-05-28T14:59:39.923Z,99.90
2019-05-28T15:02:10.274Z,99.90
2019-05-28T15:04:40.640Z,99.90
2019-05-28T15:07:10.918Z,99.90
2019-05-28T15:09:42.198Z,99.90
2019-05-28T15:12:12.585Z,99.90
2019-05-28T15:14:42.929Z,99.90
2019-05-28T15:17:13.221Z,99.90
2019-05-28T15:19:43.570Z,99.90
2019-05-28T15:22:13.873Z,99.90
2019-05-28T15:24:44.193Z,99.90
2019-05-28T15:27:14.569Z,99.90
2019-05-28T15:29:44.869Z,99.90
2019-05-28T15:32:15.189Z,99.90
2019-05-28T15:34:45.591Z,99.90
2019-05-28T15:37:16.534Z,99.90
2019-05-28T15:39:46.882Z,99.90
2019-05-28T15:42:20.715Z,99.90
2019-05-28T15:44:51.029Z,99.90
2019-05-28T15:47:21.435Z,99.90
2019-05-28T15:49:52.881Z,99.90
2019-05-28T15:52:23.537Z,99.90
2019-05-28T15:54:53.845Z,99.90
2019-05-28T15:57:24.203Z,99.90
2019-05-28T15:59:54.506Z,99.90
2019-05-28T16:02:24.916Z,99.90
2019-05-28T16:04:55.361Z,99.90
2019-05-28T16:07:26.099Z,99.90
2019-05-28T16:09:57.088Z,99.90
2019-05-28T16:12:27.725Z,99.90
2019-05-28T16:14:58.021Z,99.90
2019-05-28T16:17:28.477Z,99.90
2019-05-28T16:19:59.836Z,99.90
2019-05-28T16:22:31.106Z,99.90
2019-05-28T16:25:01.798Z,99.90
2019-05-28T16:27:32.182Z,99.90
2019-05-28T16:30:02.509Z,99.90
2019-05-28T16:32:32.934Z,99.90
2019-05-28T16:35:03.407Z,99.90
2019-05-28T16:37:34.063Z,99.90
2019-05-28T16:40:15.061Z,99.90
2019-05-28T16:42:37.121Z,99.90
2019-05-28T16:45:08.303Z,99.90
2019-05-28T16:47:38.658Z,99.90
2019-05-28T16:50:13.384Z,99.90
2019-05-28T16:52:42.212Z,99.90
2019-05-28T16:55:14.260Z,99.90
2019-05-28T16:57:44.625Z,99.90
2019-05-28T17:00:16.375Z,99.90
2019-05-28T17:02:46.954Z,99.90
2019-05-28T17:05:17.650Z,99.90
2019-05-28T17:07:50.745Z,99.90
2019-05-28T17:10:32.336Z,99.90
2019-05-28T17:12:54.641Z,99.90
2019-05-28T17:15:25.793Z,99.90
2019-05-28T17:17:56.228Z,99.90
2019-05-28T17:20:26.812Z,99.90
2019-05-28T17:22:57.228Z,99.90
2019-05-28T17:25:27.657Z,99.90
2019-05-28T17:27:58.028Z,99.90
2019-05-28T17:30:28.385Z,99.90
2019-05-28T17:32:58.691Z,99.90
2019-05-28T17:35:29.034Z,99.90
2019-05-28T17:37:59.379Z,99.90
2019-05-28T17:40:29.739Z,99.90
2019-05-28T17:43:00.109Z,99.90
2019-05-28T17:45:30.468Z,99.90
2019-05-28T17:48:00.842Z,99.90
2019-05-28T17:50:32.384Z,99.90
2019-05-28T17:53:03.728Z,99.90
2019-05-28T17:55:34.057Z,99.90
2019-05-28T17:58:04.455Z,99.90
2019-05-28T18:00:35.386Z,99.90
2019-05-28T18:03:05.788Z,99.90
2019-05-28T18:05:36.135Z,99.90
2019-05-28T18:08:06.501Z,99.90
2019-05-28T18:10:36.832Z,99.90
2019-05-28T18:13:07.218Z,99.90
2019-05-28T18:15:37.517Z,99.90
2019-05-28T18:18:07.893Z,99.90
2019-05-28T18:20:39.935Z,99.90
2019-05-28T18:23:10.233Z,99.90
2019-05-28T18:25:40.642Z,99.90
2019-05-28T18:28:10.961Z,99.90
2019-05-28T18:30:41.301Z,99.90
2019-05-28T18:33:11.651Z,99.90
2019-05-28T18:35:41.993Z,99.90
2019-05-28T18:38:12.318Z,99.90
2019-05-28T18:40:42.680Z,99.90
2019-05-28T18:43:14.213Z,99.90
2019-05-28T18:45:44.616Z,99.90
2019-05-28T18:48:14.927Z,99.90
2019-05-28T18:50:47.352Z,99.90
2019-05-28T18:53:20.588Z,99.90
2019-05-28T18:55:52.005Z,99.90
2019-05-28T18:58:22.433Z,99.90
2019-05-28T19:00:53.011Z,99.90
2019-05-28T19:03:23.397Z,99.90
2019-05-28T19:05:53.701Z,99.90
2019-05-28T19:08:24.045Z,99.90
2019-05-28T19:10:54.416Z,99.90
2019-05-28T19:13:24.733Z,99.90
2019-05-28T19:15:55.153Z,99.90
2019-05-28T19:18:25.525Z,99.90
2019-05-28T19:20:56.097Z,99.90
2019-05-28T19:23:26.434Z,99.90
2019-05-28T19:25:56.745Z,99.90
2019-05-28T19:28:27.132Z,99.90
2019-05-28T19:30:57.449Z,99.90
2019-05-28T19:33:28.195Z,99.90
2019-05-28T19:36:09.913Z,99.90
2019-05-28T19:38:45.608Z,99.90
2019-05-28T19:41:13.273Z,99.90
2019-05-28T19:43:43.597Z,99.90
2019-05-28T19:46:14.273Z,99.90
2019-05-28T19:48:44.608Z,99.90
2019-05-28T19:51:19.983Z,99.90
2019-05-28T19:53:50.282Z,99.90
2019-05-28T19:56:20.662Z,99.90
2019-05-28T19:58:51.892Z,99.90
2019-05-28T20:01:22.269Z,99.90
2019-05-28T20:03:52.687Z,99.90
2019-05-28T20:06:23.042Z,99.90
2019-05-28T20:08:53.415Z,99.90
2019-05-28T20:11:24.031Z,99.90
2019-05-28T20:13:54.507Z,99.90
2019-05-28T20:16:24.803Z,99.90
2019-05-28T20:18:55.713Z,99.90
2019-05-28T20:21:27.413Z,99.90
2019-05-28T20:23:57.747Z,99.90
2019-05-28T20:26:28.028Z,99.90
2019-05-28T20:29:08.020Z,99.90
2019-05-28T20:31:30.391Z,99.90
2019-05-28T20:34:01.820Z,99.90
2019-05-28T20:36:32.130Z,99.90
2019-05-28T20:39:03.631Z,99.90
2019-05-28T20:41:34.305Z,99.90
2019-05-28T20:44:06.397Z,99.90
2019-05-28T20:46:36.805Z,99.90
2019-05-28T20:49:07.166Z,99.90
2019-05-28T20:51:37.557Z,99.90
2019-05-28T20:54:08.077Z,99.90
2019-05-28T20:56:38.416Z,99.90
2019-05-28T20:59:08.784Z,99.90
2019-05-28T21:01:39.214Z,99.90
2019-05-28T21:04:09.564Z,99.90
2019-05-28T21:06:39.982Z,99.90
2019-05-28T21:09:12.965Z,99.90
2019-05-28T21:11:42.354Z,99.90
2019-05-28T21:14:12.692Z,99.90
2019-05-28T21:16:43.049Z,99.90
2019-05-28T21:19:13.481Z,99.90
2019-05-28T21:21:44.555Z,99.90
2019-05-28T21:24:14.892Z,99.90
2019-05-28T21:26:45.220Z,99.90
2019-05-28T21:29:15.545Z,99.90
2019-05-28T21:31:46.233Z,99.90
2019-05-28T21:34:16.989Z,99.90
2019-05-28T21:36:47.319Z,99.90
2019-05-28T21:39:18.041Z,99.90
2019-05-28T21:41:48.396Z,99.90
2019-05-28T21:44:18.732Z,99.90
2019-05-28T21:46:49.065Z,99.90
2019-05-28T21:49:19.385Z,99.90
2019-05-28T21:51:49.757Z,99.90
2019-05-28T21:54:20.074Z,99.90
2019-05-28T21:56:50.409Z,99.90
2019-05-28T21:59:20.737Z,99.90
2019-05-28T22:01:51.032Z,99.90
2019-05-28T22:04:21.477Z,99.90
2019-05-28T22:06:51.805Z,99.90
2019-05-28T22:09:22.156Z,99.90
2019-05-28T22:11:52.551Z,99.90
2019-05-28T22:14:22.921Z,99.90
2019-05-28T22:16:53.245Z,99.90
2019-05-28T22:19:23.642Z,99.90
2019-05-28T22:21:54.070Z,99.90
2019-05-28T22:24:24.390Z,99.90
2019-05-28T22:26:54.723Z,99.90
2019-05-28T22:29:25.025Z,99.90
2019-05-28T22:31:56.581Z,99.90
2019-05-28T22:34:28.094Z,99.90
2019-05-28T22:36:58.445Z,99.90
2019-05-28T22:39:29.890Z,99.90
2019-05-28T22:42:00.166Z,99.90
2019-05-28T22:44:30.571Z,99.90
2019-05-28T22:47:01.106Z,99.90
2019-05-28T22:49:31.854Z,99.90
2019-05-28T22:52:03.832Z,99.90
2019-05-28T22:54:35.346Z,99.90
2019-05-28T22:57:06.855Z,99.90
2019-05-28T22:59:37.247Z,99.90
2019-05-28T23:02:08.962Z,99.90
2019-05-28T23:04:39.451Z,99.90
2019-05-28T23:07:09.820Z,99.90
2019-05-28T23:09:40.106Z,99.90
2019-05-28T23:12:10.467Z,99.90
2019-05-28T23:14:40.795Z,99.90
2019-05-28T23:17:11.205Z,99.90
2019-05-28T23:19:41.510Z,99.90
2019-05-28T23:22:11.877Z,99.90
2019-05-28T23:24:42.193Z,99.90
2019-05-28T23:27:13.696Z,99.90
2019-05-28T23:29:43.986Z,99.90
2019-05-28T23:32:14.332Z,99.90
2019-05-28T23:34:44.625Z,99.90
2019-05-28T23:37:15.674Z,99.90
2019-05-28T23:39:45.962Z,99.90
2019-05-28T23:42:16.309Z,99.90
2019-05-28T23:44:46.660Z,99.90
2019-05-28T23:47:17.023Z,99.90
2019-05-28T23:49:47.357Z,99.90
2019-05-28T23:52:36.741Z,99.90
2019-05-28T23:55:07.748Z,99.90
2019-05-28T23:57:38.270Z,99.90
